Time;durP1;ratioP1;P1;durP2;ratioP2;P2;SDS_P1;SDS_P2;PMS_P1;PMS_P2;Temp;Humidity;BMP_temperature;BMP_pressure;BME280_temperature;BME280_humidity;BME280_pressure;Samples;Min_cycle;Max_cycle;Signal;HPM_P1;HPM_P2
2022/09/23 00:00:48;;;;;;;11.70;10.20;;;6.80;99.90;;;;;;2105229;28;20410;-70
2022/09/23 00:01:48;;;;;;;14.25;10.18;;;6.80;99.90;;;;;;2105144;28;20073;-71
2022/09/23 00:02:50;;;;;;;13.63;10.18;;;6.70;99.90;;;;;;2096275;28;20620;-71
2022/09/23 00:03:51;;;;;;;12.23;10.10;;;6.70;99.90;;;;;;2088356;28;20040;-71
2022/09/23 00:04:52;;;;;;;11.10;9.32;;;6.70;99.90;;;;;;2096333;28;20024;-70
2022/09/23 00:06:01;;;;;;;13.05;9.90;;;6.70;99.90;;;;;;2105386;28;20056;-71
2022/09/23 00:07:01;;;;;;;13.35;9.88;;;6.70;99.90;;;;;;2105177;28;20032;-71
2022/09/23 00:08:06;;;;;;;12.18;9.35;;;6.70;99.90;;;;;;2105395;28;20055;-71
2022/09/23 00:09:07;;;;;;;11.75;9.07;;;6.70;99.90;;;;;;2096150;28;20469;-71
2022/09/23 00:10:08;;;;;;;11.07;9.30;;;6.70;99.90;;;;;;2087769;28;20025;-71
2022/09/23 00:11:12;;;;;;;11.57;9.13;;;6.70;99.90;;;;;;2087774;28;20040;-71
2022/09/23 00:12:13;;;;;;;12.10;9.57;;;6.70;99.90;;;;;;2088056;28;20053;-71
2022/09/23 00:13:13;;;;;;;14.00;9.50;;;6.70;99.90;;;;;;2096788;28;20024;-71
2022/09/23 00:14:14;;;;;;;12.95;9.13;;;6.70;99.90;;;;;;2096968;28;20078;-71
2022/09/23 00:15:15;;;;;;;12.68;9.60;;;6.70;99.90;;;;;;2096911;28;20052;-71
2022/09/23 00:16:28;;;;;;;10.80;9.52;;;6.70;99.90;;;;;;2096781;28;20372;-71
2022/09/23 00:17:30;;;;;;;10.25;9.10;;;6.60;99.90;;;;;;2091496;28;20029;-71
2022/09/23 00:18:31;;;;;;;10.65;9.15;;;6.60;99.90;;;;;;2103945;28;20031;-71
2022/09/23 00:19:32;;;;;;;11.00;9.00;;;6.60;99.90;;;;;;2098053;28;20032;-71
2022/09/23 00:20:35;;;;;;;11.63;8.85;;;6.60;99.90;;;;;;2105191;28;20032;-71
2022/09/23 00:21:36;;;;;;;10.40;8.80;;;6.60;99.90;;;;;;2104999;28;20474;-71
2022/09/23 00:22:37;;;;;;;11.55;9.38;;;6.60;99.90;;;;;;2105180;28;20043;-71
2022/09/23 00:23:39;;;;;;;11.98;9.70;;;6.60;99.90;;;;;;2105218;28;20433;-71
2022/09/23 00:24:40;;;;;;;12.10;10.02;;;6.60;99.90;;;;;;2103235;28;20078;-71
2022/09/23 00:25:40;;;;;;;11.90;9.43;;;6.60;99.90;;;;;;2093530;28;20090;-71
2022/09/23 00:26:41;;;;;;;12.52;10.23;;;6.60;99.90;;;;;;2090234;28;20082;-71
2022/09/23 00:27:42;;;;;;;13.88;9.65;;;6.60;99.90;;;;;;2095981;28;20123;-71
2022/09/23 00:28:43;;;;;;;12.90;9.55;;;6.60;99.90;;;;;;2096056;28;20024;-71
2022/09/23 00:29:43;;;;;;;11.15;9.48;;;6.60;99.90;;;;;;2096179;28;20499;-71
2022/09/23 00:30:44;;;;;;;12.65;9.65;;;6.60;99.90;;;;;;2096101;28;20425;-71
2022/09/23 00:31:45;;;;;;;12.25;9.55;;;6.60;99.90;;;;;;2095789;28;20031;-71
2022/09/23 00:32:45;;;;;;;11.50;9.63;;;6.60;99.90;;;;;;2092994;28;20029;-72
2022/09/23 00:33:46;;;;;;;10.63;9.38;;;6.60;99.90;;;;;;2100195;28;20091;-71
2022/09/23 00:34:47;;;;;;;11.57;9.43;;;6.60;99.90;;;;;;2101600;28;20029;-72
2022/09/23 00:35:48;;;;;;;12.25;9.20;;;6.60;99.90;;;;;;2096769;28;20135;-71
2022/09/23 00:36:49;;;;;;;10.20;8.90;;;6.50;99.90;;;;;;2096762;28;20035;-71
2022/09/23 00:37:50;;;;;;;10.38;8.77;;;6.50;99.90;;;;;;2096810;28;20029;-72
2022/09/23 00:38:50;;;;;;;10.38;9.13;;;6.50;99.90;;;;;;2096699;28;20522;-71
2022/09/23 00:39:51;;;;;;;14.15;9.70;;;6.50;99.90;;;;;;2096454;28;20104;-72
2022/09/23 00:40:52;;;;;;;12.75;9.20;;;6.50;99.90;;;;;;2096163;28;20020;-71
2022/09/23 00:41:53;;;;;;;12.27;9.40;;;6.50;99.90;;;;;;2096172;28;20033;-72
2022/09/23 00:42:53;;;;;;;12.02;9.20;;;6.50;99.90;;;;;;2096634;28;20037;-72
2022/09/23 00:43:58;;;;;;;14.45;9.50;;;6.50;99.90;;;;;;2096760;28;20048;-71
2022/09/23 00:45:00;;;;;;;10.63;9.23;;;6.40;99.90;;;;;;2096835;28;20025;-71
2022/09/23 00:46:01;;;;;;;10.55;8.98;;;6.40;99.90;;;;;;2096722;28;20669;-71
2022/09/23 00:47:01;;;;;;;12.43;9.27;;;6.40;99.90;;;;;;2096450;28;20024;-71
2022/09/23 00:48:04;;;;;;;11.45;8.85;;;6.40;99.90;;;;;;2096637;28;20498;-71
2022/09/23 00:49:11;;;;;;;10.32;8.77;;;6.40;99.90;;;;;;2096615;28;20021;-71
2022/09/23 00:50:26;;;;;;;11.85;9.10;;;6.40;99.90;;;;;;2096884;28;20020;-71
2022/09/23 00:51:36;;;;;;;11.27;8.43;;;6.40;99.90;;;;;;2088044;28;20486;-71
2022/09/23 00:52:38;;;;;;;11.70;9.18;;;6.40;99.90;;;;;;2083023;28;20095;-71
2022/09/23 00:53:39;;;;;;;10.85;8.70;;;6.40;99.90;;;;;;2085193;28;20043;-71
2022/09/23 00:54:41;;;;;;;9.60;8.45;;;6.40;99.90;;;;;;2087827;28;20036;-70
2022/09/23 00:55:51;;;;;;;10.85;9.10;;;6.30;99.90;;;;;;2096600;28;20035;-71
2022/09/23 00:56:53;;;;;;;10.70;8.40;;;6.40;99.90;;;;;;2096422;28;20040;-71
2022/09/23 00:57:56;;;;;;;10.27;8.75;;;6.40;99.90;;;;;;2096533;28;20503;-71
2022/09/23 00:58:58;;;;;;;11.68;8.80;;;6.30;99.90;;;;;;2096625;28;20028;-71
2022/09/23 00:59:59;;;;;;;10.65;8.85;;;6.30;99.90;;;;;;2087557;28;20042;-72
2022/09/23 01:01:02;;;;;;;10.52;8.95;;;6.30;99.90;;;;;;2071177;28;20030;-71
2022/09/23 01:02:04;;;;;;;10.27;8.32;;;6.30;99.90;;;;;;2079682;28;20037;-72
2022/09/23 01:03:06;;;;;;;12.23;8.82;;;6.30;99.90;;;;;;2096791;28;20826;-71
2022/09/23 01:04:07;;;;;;;9.95;8.77;;;6.30;99.90;;;;;;2096480;28;20040;-70
2022/09/23 01:05:08;;;;;;;10.52;8.88;;;6.30;99.90;;;;;;2087750;28;20029;-71
2022/09/23 01:06:10;;;;;;;10.77;8.93;;;6.30;99.90;;;;;;2087861;28;20463;-71
2022/09/23 01:07:10;;;;;;;12.80;9.05;;;6.30;99.90;;;;;;2096338;28;20066;-71
2022/09/23 01:08:12;;;;;;;11.52;9.05;;;6.30;99.90;;;;;;2103405;28;20051;-70
2022/09/23 01:09:13;;;;;;;10.40;8.93;;;6.30;99.90;;;;;;2105667;28;20009;-70
2022/09/23 01:10:17;;;;;;;10.40;8.95;;;6.30;99.90;;;;;;2105634;28;20028;-70
2022/09/23 01:11:40;;;;;;;10.23;8.80;;;6.30;99.90;;;;;;2097522;28;20031;-71
2022/09/23 01:12:43;;;;;;;12.30;9.23;;;6.30;99.90;;;;;;2101627;28;20044;-71
2022/09/23 01:14:12;;;;;;;13.23;9.82;;;6.30;99.90;;;;;;2107211;28;20043;-71
2022/09/23 01:15:19;;;;;;;11.95;9.40;;;6.30;99.90;;;;;;2105505;28;20029;-71
2022/09/23 01:16:36;;;;;;;10.75;8.82;;;6.30;99.90;;;;;;2108175;28;20021;-70
2022/09/23 01:17:48;;;;;;;11.88;9.45;;;6.30;99.90;;;;;;2114391;28;20039;-69
2022/09/23 01:19:04;;;;;;;11.57;8.93;;;6.30;99.90;;;;;;2096595;28;20028;-70
2022/09/23 01:20:30;;;;;;;11.38;8.98;;;6.20;99.90;;;;;;2098658;28;20044;-71
2022/09/23 01:21:50;;;;;;;13.57;9.27;;;6.20;99.90;;;;;;2081876;28;20047;-70
2022/09/23 01:23:18;;;;;;;11.55;9.18;;;6.20;99.90;;;;;;2095205;28;20043;-70
2022/09/23 01:24:45;;;;;;;11.70;8.93;;;6.20;99.90;;;;;;2095902;28;20025;-70
2022/09/23 01:26:05;;;;;;;12.02;9.23;;;6.20;99.90;;;;;;2100175;28;20080;-70
2022/09/23 01:27:31;;;;;;;11.00;8.60;;;6.20;99.90;;;;;;2104995;28;20390;-70
2022/09/23 01:29:01;;;;;;;11.75;8.82;;;6.10;99.90;;;;;;2100934;28;20161;-70
2022/09/23 01:30:11;;;;;;;10.93;8.77;;;6.10;99.90;;;;;;2099488;28;20102;-70
2022/09/23 01:31:35;;;;;;;9.73;8.50;;;6.10;99.90;;;;;;2103122;28;20020;-70
2022/09/23 01:32:48;;;;;;;11.00;9.13;;;6.10;99.90;;;;;;2104865;28;20553;-70
2022/09/23 01:34:14;;;;;;;11.23;9.05;;;6.10;99.90;;;;;;2095952;28;20047;-71
2022/09/23 01:35:37;;;;;;;11.15;9.25;;;6.10;99.90;;;;;;2095904;28;20039;-70
2022/09/23 01:37:12;;;;;;;11.80;9.00;;;6.10;99.90;;;;;;2098883;28;20115;-71
2022/09/23 01:38:31;;;;;;;12.05;9.00;;;6.10;99.90;;;;;;2104761;28;20099;-71
2022/09/23 01:39:41;;;;;;;13.13;9.40;;;6.00;99.90;;;;;;2104622;28;20039;-71
2022/09/23 01:41:07;;;;;;;10.52;9.10;;;6.00;99.90;;;;;;2104826;28;20047;-71
2022/09/23 01:42:24;;;;;;;10.20;8.77;;;6.00;99.90;;;;;;2104503;28;20112;-71
2022/09/23 01:43:47;;;;;;;11.65;9.05;;;6.00;99.90;;;;;;2104380;28;20081;-71
2022/09/23 01:45:35;;;;;;;12.57;9.32;;;6.00;99.90;;;;;;2104663;28;20028;-72
2022/09/23 01:46:52;;;;;;;11.05;9.10;;;6.00;99.90;;;;;;2093411;28;20040;-71
2022/09/23 01:48:14;;;;;;;11.65;9.00;;;5.90;99.90;;;;;;2100512;28;20085;-71
2022/09/23 01:49:24;;;;;;;11.10;8.95;;;6.00;99.90;;;;;;2097317;28;20024;-70
2022/09/23 01:51:58;;;;;;;11.57;9.40;;;5.90;99.90;;;;;;2088068;28;20035;-70
2022/09/23 01:53:05;;;;;;;10.35;8.65;;;5.90;99.90;;;;;;2079047;28;20033;-70
2022/09/23 01:54:14;;;;;;;11.48;8.80;;;5.90;99.90;;;;;;2080010;28;20041;-70
2022/09/23 01:55:30;;;;;;;10.52;8.38;;;5.90;99.90;;;;;;2088510;28;20112;-70
2022/09/23 01:56:48;;;;;;;10.70;9.13;;;5.90;99.90;;;;;;2079150;28;20040;-70
2022/09/23 01:57:57;;;;;;;11.68;9.18;;;5.80;99.90;;;;;;2081949;28;20056;-70
2022/09/23 01:59:21;;;;;;;12.05;9.25;;;5.80;99.90;;;;;;2078981;28;20022;-70
2022/09/23 02:00:23;;;;;;;12.00;9.75;;;5.80;99.90;;;;;;2082342;28;20017;-70
2022/09/23 02:01:39;;;;;;;11.10;8.73;;;5.80;99.90;;;;;;2087136;28;20025;-70
2022/09/23 02:03:00;;;;;;;11.90;8.90;;;5.80;99.90;;;;;;2081451;28;20474;-70
2022/09/23 02:04:29;;;;;;;10.23;8.70;;;5.80;99.90;;;;;;2090336;28;20070;-69
2022/09/23 02:05:38;;;;;;;10.77;8.82;;;5.80;99.90;;;;;;2086902;28;20076;-70
2022/09/23 02:06:44;;;;;;;10.35;8.70;;;5.80;99.90;;;;;;2096321;28;20052;-70
2022/09/23 02:07:50;;;;;;;10.57;8.98;;;5.80;99.90;;;;;;2087387;28;20512;-70
2022/09/23 02:09:01;;;;;;;10.95;8.60;;;5.80;99.90;;;;;;2088247;28;20769;-72
2022/09/23 02:10:11;;;;;;;10.20;8.80;;;5.80;99.90;;;;;;2101947;28;20028;-71
2022/09/23 02:11:14;;;;;;;9.77;8.70;;;5.80;99.90;;;;;;2097724;28;20035;-70
2022/09/23 02:12:19;;;;;;;11.20;8.50;;;5.80;99.90;;;;;;2103730;28;20032;-72
2022/09/23 02:13:29;;;;;;;11.32;8.73;;;5.80;99.90;;;;;;2104899;28;20027;-71
2022/09/23 02:14:37;;;;;;;10.85;8.98;;;5.80;99.90;;;;;;2087493;28;20048;-71
2022/09/23 02:15:43;;;;;;;12.30;9.15;;;5.80;99.90;;;;;;2089619;28;20067;-69
2022/09/23 02:16:48;;;;;;;10.93;9.23;;;5.80;99.90;;;;;;2103692;28;20027;-69
2022/09/23 02:18:02;;;;;;;11.30;8.88;;;5.70;99.90;;;;;;2099938;28;20030;-71
2022/09/23 02:19:27;;;;;;;11.10;9.32;;;5.80;99.90;;;;;;2089948;28;20029;-72
2022/09/23 02:20:33;;;;;;;10.77;9.15;;;5.80;99.90;;;;;;2082145;28;20052;-71
2022/09/23 02:21:39;;;;;;;10.18;9.02;;;5.70;99.90;;;;;;2088120;28;20372;-70
2022/09/23 02:23:05;;;;;;;12.90;9.85;;;5.70;99.90;;;;;;2088145;28;20025;-70
2022/09/23 02:24:13;;;;;;;136.15;97.90;;;5.70;99.90;;;;;;2088281;28;20025;-69
2022/09/23 02:25:16;;;;;;;101.00;69.15;;;5.70;99.90;;;;;;2102448;28;20032;-70
2022/09/23 02:26:28;;;;;;;58.50;40.90;;;5.70;99.90;;;;;;2097060;28;20481;-70
2022/09/23 02:27:39;;;;;;;45.83;33.67;;;5.70;99.90;;;;;;2088254;28;20025;-71
2022/09/23 02:28:56;;;;;;;34.53;25.33;;;5.70;99.90;;;;;;2088047;28;20033;-70
2022/09/23 02:29:57;;;;;;;23.05;18.00;;;5.70;99.90;;;;;;2088034;28;20400;-71
2022/09/23 02:31:30;;;;;;;19.13;15.35;;;5.70;99.90;;;;;;2078991;28;20047;-70
2022/09/23 02:32:38;;;;;;;16.77;12.05;;;5.70;99.90;;;;;;2067331;28;20047;-70
2022/09/23 02:33:47;;;;;;;12.98;10.52;;;5.70;99.90;;;;;;2080369;28;20057;-71
2022/09/23 02:34:51;;;;;;;12.07;9.95;;;5.70;99.90;;;;;;2088103;28;20727;-70
2022/09/23 02:36:00;;;;;;;12.13;9.48;;;5.70;99.90;;;;;;2087907;28;20040;-71
2022/09/23 02:37:28;;;;;;;11.73;9.07;;;5.60;99.90;;;;;;2087986;28;20029;-71
2022/09/23 02:38:38;;;;;;;11.13;9.25;;;5.70;99.90;;;;;;2087881;28;20040;-70
2022/09/23 02:39:53;;;;;;;12.18;9.85;;;5.70;99.90;;;;;;2088031;28;20029;-70
2022/09/23 02:41:13;;;;;;;11.32;9.07;;;5.60;99.90;;;;;;2088150;28;20155;-70
2022/09/23 02:42:21;;;;;;;11.18;8.90;;;5.60;99.90;;;;;;2088142;28;20025;-71
2022/09/23 02:43:34;;;;;;;11.88;8.90;;;5.60;99.90;;;;;;2089714;28;20022;-70
2022/09/23 02:44:35;;;;;;;15.90;12.80;;;5.60;99.90;;;;;;2091409;28;20082;-71
2022/09/23 02:45:39;;;;;;;22.55;15.70;;;5.60;99.90;;;;;;2102427;28;20028;-71
2022/09/23 02:46:42;;;;;;;15.05;11.70;;;5.60;99.90;;;;;;2095902;28;20036;-71
2022/09/23 02:47:46;;;;;;;13.35;10.80;;;5.60;99.90;;;;;;2087328;28;20115;-71
2022/09/23 02:49:00;;;;;;;14.02;10.63;;;5.60;99.90;;;;;;2087598;28;20026;-70
2022/09/23 02:50:00;;;;;;;11.90;9.88;;;5.60;99.90;;;;;;2096317;28;20028;-70
2022/09/23 02:51:02;;;;;;;12.82;10.13;;;5.60;99.90;;;;;;2087088;28;20067;-70
2022/09/23 02:52:06;;;;;;;11.95;9.85;;;5.60;99.90;;;;;;2091148;28;20036;-70
2022/09/23 02:53:07;;;;;;;10.95;8.82;;;5.60;99.90;;;;;;2105107;28;20024;-71
2022/09/23 02:54:13;;;;;;;11.18;9.30;;;5.60;99.90;;;;;;2105407;28;20571;-71
2022/09/23 02:55:17;;;;;;;12.80;9.60;;;5.50;99.90;;;;;;2105432;28;20125;-71
2022/09/23 02:56:19;;;;;;;10.02;8.90;;;5.50;99.90;;;;;;2105381;28;20028;-71
2022/09/23 02:57:20;;;;;;;11.48;9.02;;;5.50;99.90;;;;;;2105405;28;20036;-73
2022/09/23 02:58:21;;;;;;;13.30;9.93;;;5.50;99.90;;;;;;2101900;28;20040;-72
2022/09/23 02:59:23;;;;;;;11.40;9.40;;;5.50;99.90;;;;;;2097408;28;20034;-72
2022/09/23 03:00:26;;;;;;;12.30;9.82;;;5.50;99.90;;;;;;2089353;28;20487;-72
2022/09/23 03:01:46;;;;;;;11.05;9.40;;;5.50;99.90;;;;;;2088487;28;20040;-72
2022/09/23 03:03:29;;;;;;;13.63;10.05;;;5.50;99.90;;;;;;2088533;28;20454;-73
2022/09/23 03:05:08;;;;;;;12.68;9.35;;;5.50;99.90;;;;;;2085665;28;20116;-73
2022/09/23 03:06:29;;;;;;;10.90;9.60;;;5.40;99.90;;;;;;2047953;29;20035;-72
2022/09/23 03:07:44;;;;;;;13.48;9.95;;;5.40;99.90;;;;;;2092016;28;20495;-73
2022/09/23 03:08:52;;;;;;;11.77;9.48;;;5.40;99.90;;;;;;2103194;28;20024;-72
2022/09/23 03:10:13;;;;;;;13.40;9.95;;;5.40;99.90;;;;;;2098371;28;20051;-72
2022/09/23 03:11:19;;;;;;;12.05;9.25;;;5.40;99.90;;;;;;2089515;28;20052;-72
2022/09/23 03:12:58;;;;;;;13.32;9.77;;;5.30;99.90;;;;;;2090474;28;20032;-72
2022/09/23 03:14:29;;;;;;;13.25;9.95;;;5.40;99.90;;;;;;2100209;28;20091;-73
2022/09/23 03:15:42;;;;;;;12.73;10.15;;;5.30;99.90;;;;;;2089910;28;20035;-72
2022/09/23 03:16:49;;;;;;;13.20;9.68;;;5.30;99.90;;;;;;2089683;28;20545;-72
2022/09/23 03:18:05;;;;;;;13.32;10.43;;;5.30;99.90;;;;;;2089920;28;20043;-72
2022/09/23 03:19:54;;;;;;;13.00;10.07;;;5.30;99.90;;;;;;2089881;28;20072;-72
2022/09/23 03:21:01;;;;;;;13.02;9.75;;;5.30;99.90;;;;;;2093338;28;20028;-72
2022/09/23 03:22:08;;;;;;;12.63;9.75;;;5.30;99.90;;;;;;2102986;28;20027;-72
2022/09/23 03:23:13;;;;;;;12.75;10.48;;;5.30;99.90;;;;;;2096871;28;20028;-72
2022/09/23 03:24:15;;;;;;;15.05;10.18;;;5.30;99.90;;;;;;2090392;28;20040;-73
2022/09/23 03:25:20;;;;;;;13.18;10.77;;;5.30;99.90;;;;;;2097318;28;20021;-72
2022/09/23 03:26:26;;;;;;;13.20;10.25;;;5.30;99.90;;;;;;2097424;28;20090;-72
2022/09/23 03:27:30;;;;;;;12.73;10.35;;;5.30;99.90;;;;;;2088651;28;20098;-72
2022/09/23 03:28:31;;;;;;;11.68;9.98;;;5.30;99.90;;;;;;2088942;28;20025;-72
2022/09/23 03:29:36;;;;;;;14.18;10.45;;;5.30;99.90;;;;;;2097850;28;20028;-72
2022/09/23 03:30:39;;;;;;;14.55;10.52;;;5.20;99.90;;;;;;2080027;28;20033;-72
2022/09/23 03:31:41;;;;;;;13.05;10.88;;;5.30;99.90;;;;;;2080372;28;20499;-72
2022/09/23 03:32:44;;;;;;;12.75;10.48;;;5.20;99.90;;;;;;2097503;28;20119;-72
2022/09/23 03:33:56;;;;;;;14.30;11.05;;;5.20;99.90;;;;;;2097726;28;20029;-73
2022/09/23 03:35:00;;;;;;;13.82;10.60;;;5.20;99.90;;;;;;2097644;28;20033;-72
2022/09/23 03:37:46;;;;;;;12.88;10.18;;;5.20;99.90;;;;;;2083837;28;20037;-72
2022/09/23 03:38:51;;;;;;;12.63;10.27;;;5.20;99.90;;;;;;2091482;28;20025;-72
2022/09/23 03:40:07;;;;;;;12.18;10.30;;;5.20;99.90;;;;;;2097722;28;20753;-72
2022/09/23 03:41:11;;;;;;;13.20;10.52;;;5.20;99.90;;;;;;2103511;28;20111;-72
2022/09/23 03:42:23;;;;;;;13.20;10.13;;;5.20;99.90;;;;;;2098506;28;20062;-72
2022/09/23 03:43:23;;;;;;;12.93;10.38;;;5.20;99.90;;;;;;2089245;28;20029;-72
2022/09/23 03:44:28;;;;;;;12.68;10.15;;;5.20;99.90;;;;;;2089536;28;20017;-72
2022/09/23 03:45:33;;;;;;;15.05;10.57;;;5.20;99.90;;;;;;2089307;28;20029;-72
2022/09/23 03:46:35;;;;;;;13.82;9.65;;;5.20;99.90;;;;;;2080209;28;20068;-72
2022/09/23 03:47:38;;;;;;;13.63;10.48;;;5.20;99.90;;;;;;2080648;28;20029;-72
2022/09/23 03:48:39;;;;;;;13.60;10.65;;;5.20;99.90;;;;;;2080029;28;20426;-72
2022/09/23 03:49:43;;;;;;;13.73;10.93;;;5.20;99.90;;;;;;2080899;28;20395;-72
2022/09/23 03:50:44;;;;;;;14.63;10.95;;;5.20;99.90;;;;;;2089067;28;20082;-72
2022/09/23 03:51:44;;;;;;;14.98;10.98;;;5.10;99.90;;;;;;2091002;28;20025;-72
2022/09/23 03:52:46;;;;;;;14.77;10.88;;;5.20;99.90;;;;;;2105597;28;20024;-72
2022/09/23 03:53:47;;;;;;;15.38;11.70;;;5.10;99.90;;;;;;2096737;28;20032;-72
2022/09/23 03:54:50;;;;;;;15.45;11.52;;;5.10;99.90;;;;;;2090886;28;20021;-72
2022/09/23 03:55:50;;;;;;;16.50;12.48;;;5.10;99.90;;;;;;2097188;28;20649;-71
2022/09/23 03:56:51;;;;;;;15.80;11.93;;;5.10;99.90;;;;;;2097103;28;20077;-71
2022/09/23 03:57:51;;;;;;;16.38;12.30;;;5.10;99.90;;;;;;2097187;28;20025;-72
2022/09/23 03:58:52;;;;;;;17.05;12.60;;;5.20;99.90;;;;;;2088213;28;20134;-72
2022/09/23 03:59:53;;;;;;;16.65;12.50;;;5.20;99.90;;;;;;2088246;28;20037;-71
2022/09/23 04:00:53;;;;;;;16.52;12.10;;;5.10;99.90;;;;;;2097144;28;20049;-71
2022/09/23 04:01:54;;;;;;;14.57;11.70;;;5.10;99.90;;;;;;2094638;28;20388;-70
2022/09/23 04:02:55;;;;;;;16.10;11.60;;;5.10;99.90;;;;;;2097192;28;20028;-70
2022/09/23 04:03:56;;;;;;;15.10;11.20;;;5.10;99.90;;;;;;2099946;28;20037;-71
2022/09/23 04:04:56;;;;;;;14.70;11.60;;;5.10;99.90;;;;;;2102017;28;20038;-71
2022/09/23 04:05:57;;;;;;;15.07;11.45;;;5.10;99.90;;;;;;2105386;28;20036;-70
2022/09/23 04:06:58;;;;;;;16.65;11.57;;;5.10;99.90;;;;;;2105202;28;20046;-70
2022/09/23 04:07:59;;;;;;;14.68;11.43;;;5.10;99.90;;;;;;2105212;28;20102;-72
2022/09/23 04:09:00;;;;;;;16.13;11.40;;;5.10;99.90;;;;;;2105265;28;20032;-70
2022/09/23 04:10:02;;;;;;;14.20;11.52;;;5.10;99.90;;;;;;2094633;28;20036;-71
2022/09/23 04:11:03;;;;;;;14.40;11.15;;;5.10;99.90;;;;;;2096503;28;20037;-71
2022/09/23 04:12:05;;;;;;;13.65;11.20;;;5.10;99.90;;;;;;2099417;28;20025;-70
2022/09/23 04:13:06;;;;;;;13.82;11.05;;;5.10;99.90;;;;;;2088013;28;20122;-71
2022/09/23 04:14:06;;;;;;;15.43;11.45;;;5.10;99.90;;;;;;2088406;28;20037;-71
2022/09/23 04:15:07;;;;;;;15.60;11.43;;;5.10;99.90;;;;;;2097022;28;20035;-70
2022/09/23 04:16:08;;;;;;;13.40;11.10;;;5.10;99.90;;;;;;2097088;28;20067;-71
2022/09/23 04:17:10;;;;;;;14.27;11.13;;;5.10;99.90;;;;;;2096794;28;20028;-70
2022/09/23 04:18:11;;;;;;;17.10;11.20;;;5.10;99.90;;;;;;2103707;28;20028;-70
2022/09/23 04:19:12;;;;;;;16.35;11.98;;;5.10;99.90;;;;;;2098683;28;20029;-70
2022/09/23 04:20:13;;;;;;;15.52;11.50;;;5.10;99.90;;;;;;2097035;28;20040;-71
2022/09/23 04:21:14;;;;;;;14.77;11.27;;;5.10;99.90;;;;;;2097035;28;20738;-71
2022/09/23 04:22:14;;;;;;;14.95;11.30;;;5.10;99.90;;;;;;2097068;28;20052;-71
2022/09/23 04:23:15;;;;;;;14.63;10.95;;;5.10;99.90;;;;;;2097028;28;20027;-71
2022/09/23 04:24:16;;;;;;;16.45;12.13;;;5.10;99.90;;;;;;2087993;28;20025;-70
2022/09/23 04:25:17;;;;;;;14.50;11.73;;;5.10;99.90;;;;;;2088228;28;20905;-70
2022/09/23 04:26:18;;;;;;;18.75;11.52;;;5.20;99.90;;;;;;2088121;28;20119;-70
2022/09/23 04:27:18;;;;;;;16.10;11.18;;;5.10;99.90;;;;;;2080027;28;20076;-71
2022/09/23 04:28:20;;;;;;;15.43;11.50;;;5.10;99.90;;;;;;2088042;28;20028;-71
2022/09/23 04:29:21;;;;;;;16.90;11.40;;;5.10;99.90;;;;;;2096759;28;20016;-70
2022/09/23 04:30:22;;;;;;;16.80;11.68;;;5.10;99.90;;;;;;2097065;28;20059;-71
2022/09/23 04:31:23;;;;;;;16.10;11.75;;;5.10;99.90;;;;;;2096927;28;20036;-70
2022/09/23 04:32:24;;;;;;;15.48;11.68;;;5.10;99.90;;;;;;2096886;28;20075;-72
2022/09/23 04:33:25;;;;;;;15.45;11.23;;;5.10;99.90;;;;;;2096973;28;20497;-71
2022/09/23 04:34:26;;;;;;;15.98;11.43;;;5.10;99.90;;;;;;2096898;28;20120;-70
2022/09/23 04:35:26;;;;;;;16.67;11.30;;;5.00;99.90;;;;;;2096975;28;20039;-71
2022/09/23 04:36:29;;;;;;;19.17;11.70;;;5.00;99.90;;;;;;2097412;28;20036;-71
2022/09/23 04:37:29;;;;;;;17.67;11.68;;;5.00;99.90;;;;;;2095081;28;20028;-71
2022/09/23 04:38:30;;;;;;;17.08;11.98;;;5.00;99.90;;;;;;2088790;28;20033;-72
2022/09/23 04:39:31;;;;;;;16.45;11.07;;;5.00;99.90;;;;;;2105097;28;20024;-72
2022/09/23 04:40:32;;;;;;;14.82;11.38;;;5.00;99.90;;;;;;2105604;28;20111;-76
2022/09/23 04:41:32;;;;;;;17.35;12.13;;;5.00;99.90;;;;;;2105710;28;20398;-76
2022/09/23 04:42:33;;;;;;;19.27;12.00;;;5.00;99.90;;;;;;2097360;28;20040;-76
2022/09/23 04:43:34;;;;;;;19.00;11.77;;;5.00;99.90;;;;;;2097052;28;20607;-76
2022/09/23 04:44:34;;;;;;;18.35;12.05;;;5.00;99.90;;;;;;2097050;28;20027;-74
2022/09/23 04:45:35;;;;;;;16.33;11.25;;;5.10;99.90;;;;;;2088660;28;20067;-76
2022/09/23 04:46:37;;;;;;;16.00;11.27;;;5.10;99.90;;;;;;2087002;28;20104;-76
2022/09/23 04:47:37;;;;;;;16.30;11.48;;;5.00;99.90;;;;;;2089144;28;20037;-75
2022/09/23 04:48:40;;;;;;;19.23;11.95;;;5.10;99.90;;;;;;2091026;28;20037;-74
2022/09/23 04:49:40;;;;;;;18.15;12.10;;;5.00;99.90;;;;;;2080828;28;20632;-75
2022/09/23 04:50:41;;;;;;;19.00;11.80;;;5.00;99.90;;;;;;2080372;28;20025;-75
2022/09/23 04:51:42;;;;;;;16.98;11.52;;;5.00;99.90;;;;;;2098008;28;20033;-74
2022/09/23 04:52:43;;;;;;;18.17;11.82;;;5.00;99.90;;;;;;2105878;28;20028;-73
2022/09/23 04:53:45;;;;;;;15.95;10.80;;;5.00;99.90;;;;;;2103154;28;20025;-76
2022/09/23 04:54:45;;;;;;;16.92;11.13;;;5.00;99.90;;;;;;2097976;28;20497;-75
2022/09/23 04:55:46;;;;;;;16.30;11.45;;;5.00;99.90;;;;;;2097175;28;20120;-75
2022/09/23 04:56:47;;;;;;;18.33;12.18;;;5.00;99.90;;;;;;2097614;28;20028;-75
2022/09/23 04:57:47;;;;;;;17.27;11.82;;;4.90;99.90;;;;;;2099634;28;20450;-75
2022/09/23 04:58:49;;;;;;;16.80;11.52;;;4.90;99.90;;;;;;2089867;28;20024;-76
2022/09/23 04:59:50;;;;;;;18.65;12.02;;;4.90;99.90;;;;;;2095322;28;20025;-75
2022/09/23 05:00:50;;;;;;;18.90;12.10;;;4.90;99.90;;;;;;2102793;28;20080;-74
2022/09/23 05:01:54;;;;;;;18.38;12.13;;;4.90;99.90;;;;;;2097675;28;20048;-75
2022/09/23 05:02:54;;;;;;;18.95;11.60;;;4.80;99.90;;;;;;2088594;28;20033;-75
2022/09/23 05:04:00;;;;;;;19.75;12.45;;;4.90;99.90;;;;;;2096683;28;20105;-75
2022/09/23 05:05:00;;;;;;;18.23;11.23;;;4.90;99.90;;;;;;2096167;28;20027;-74
2022/09/23 05:06:01;;;;;;;20.75;12.10;;;4.90;99.90;;;;;;2091653;28;20387;-74
2022/09/23 05:07:03;;;;;;;19.30;11.32;;;4.90;99.90;;;;;;2093518;28;20085;-74
2022/09/23 05:08:03;;;;;;;17.58;11.60;;;4.90;99.90;;;;;;2090855;28;20147;-75
2022/09/23 05:09:06;;;;;;;19.67;12.00;;;4.90;99.90;;;;;;2093916;28;20090;-74
2022/09/23 05:10:07;;;;;;;19.70;11.90;;;4.90;99.90;;;;;;2096639;28;20035;-74
2022/09/23 05:11:07;;;;;;;17.33;11.43;;;4.90;99.90;;;;;;2096256;28;20048;-74
2022/09/23 05:12:08;;;;;;;17.60;11.23;;;4.90;99.90;;;;;;2096262;28;20029;-74
2022/09/23 05:13:09;;;;;;;19.92;12.23;;;4.90;99.90;;;;;;2105779;28;20185;-74
2022/09/23 05:14:09;;;;;;;18.65;11.55;;;4.90;99.90;;;;;;2090011;28;20057;-75
2022/09/23 05:15:11;;;;;;;19.20;11.50;;;4.90;99.90;;;;;;2081642;28;20036;-76
2022/09/23 05:16:13;;;;;;;25.88;12.68;;;4.90;99.90;;;;;;2096266;28;20727;-75
2022/09/23 05:17:14;;;;;;;20.52;12.60;;;4.90;99.90;;;;;;2107032;28;20111;-75
2022/09/23 05:18:14;;;;;;;22.30;12.85;;;4.90;99.90;;;;;;2097060;28;20032;-78
2022/09/23 05:19:15;;;;;;;20.42;12.50;;;5.00;99.90;;;;;;2089039;28;20037;-77
2022/09/23 05:20:16;;;;;;;20.42;13.25;;;5.00;99.90;;;;;;2096916;28;20033;-75
2022/09/23 05:21:19;;;;;;;19.55;12.15;;;5.10;99.90;;;;;;2106075;28;20028;-76
2022/09/23 05:22:20;;;;;;;19.67;12.35;;;5.10;99.90;;;;;;2106336;28;20032;-75
2022/09/23 05:23:24;;;;;;;18.35;11.55;;;5.10;99.90;;;;;;2106457;28;20494;-76
2022/09/23 05:24:25;;;;;;;20.88;12.68;;;5.10;99.90;;;;;;2097261;28;20024;-77
2022/09/23 05:25:25;;;;;;;19.30;11.90;;;5.10;99.90;;;;;;2088561;28;20718;-76
2022/09/23 05:26:29;;;;;;;20.33;12.48;;;5.10;99.90;;;;;;2088381;28;20025;-76
2022/09/23 05:27:30;;;;;;;22.80;12.50;;;5.10;99.90;;;;;;2096640;28;20113;-76
2022/09/23 05:28:32;;;;;;;20.45;12.27;;;5.10;99.90;;;;;;2088571;28;20145;-76
2022/09/23 05:29:33;;;;;;;20.35;12.45;;;5.10;99.90;;;;;;2089159;28;20032;-75
2022/09/23 05:30:34;;;;;;;19.92;12.48;;;5.10;99.90;;;;;;2105748;28;20478;-75
2022/09/23 05:31:35;;;;;;;19.45;12.18;;;5.10;99.90;;;;;;2096408;28;20025;-75
2022/09/23 05:32:36;;;;;;;20.92;12.48;;;5.20;99.90;;;;;;2084584;28;20025;-76
2022/09/23 05:33:37;;;;;;;20.88;12.18;;;5.20;99.90;;;;;;2094939;28;20033;-76
2022/09/23 05:34:38;;;;;;;19.38;11.98;;;5.20;99.90;;;;;;2090049;28;20566;-74
2022/09/23 05:35:45;;;;;;;20.50;12.65;;;5.20;99.90;;;;;;2097445;28;20056;-74
2022/09/23 05:36:45;;;;;;;18.90;12.70;;;5.20;99.90;;;;;;2097312;28;20035;-70
2022/09/23 05:37:46;;;;;;;20.65;12.45;;;5.30;99.90;;;;;;2096196;28;20048;-73
2022/09/23 05:38:48;;;;;;;20.35;12.70;;;5.30;99.90;;;;;;2096162;28;20062;-72
2022/09/23 05:39:49;;;;;;;20.65;12.23;;;5.30;99.90;;;;;;2096364;28;20063;-72
2022/09/23 05:41:00;;;;;;;21.23;12.88;;;5.30;99.90;;;;;;2096316;28;20101;-72
2022/09/23 05:42:01;;;;;;;20.58;12.48;;;5.40;99.90;;;;;;2097768;28;20078;-72
2022/09/23 05:43:02;;;;;;;22.02;12.88;;;5.40;99.90;;;;;;2096155;28;20036;-73
2022/09/23 05:44:03;;;;;;;19.15;12.23;;;5.40;99.90;;;;;;2096342;28;20102;-73
2022/09/23 05:45:04;;;;;;;19.35;12.60;;;5.40;99.90;;;;;;2096306;28;20096;-74